KTYR/TYR METAR and TAF weather

Enter ICAO airport designator
Station Type Date Time Source
KTYR METAR 2020/09/22 23:53 UTC NOAA

KTYR 222353Z 06007KT 10SM -RA BKN008 OVC014 20/19 A2996 RMK AO2 RAB2259 CIG 006V010 SLP140 P0001 60001 T02000189 10206 20200 56003


Station Type Date Time Source
KTYR Decoded METAR 2020/09/22 23:53 UTC NOAA

TYLER POUNDS FIELDS, TX, United States (KTYR) 32-21N 095-24W 165M
Sep 22, 2020 - 07:53 PM EDT / 2020.09.22 2353 UTC
Wind: from the ENE (060 degrees) at 8 MPH (7 KT):0
Visibility: 10 mile(s):0
Sky conditions: overcast
Weather: light rain
Precipitation last hour: 0.01 inches
Temperature: 68.0 F (20.0 C)
Dew Point: 66.0 F (18.9 C)
Relative Humidity: 93%
Pressure (altimeter): 29.96 in. Hg (1014 hPa)
Pressure tendency: 0.01 inches (0.3 hPa) lower than three hours ago
ob: KTYR 222353Z 06007KT 10SM -RA BKN008 OVC014 20/19 A2996 RMK AO2 RAB2259 CIG 006V010 SLP140 P0001 60001 T02000189 10206 20200 56003
cycle: 0

Station Type Date Time Source
KTYR TAF 2020/09/22 22:28 UTC NOAA

TAF
AMD KTYR 222226Z 2222/2318 05008KT 4SM -RA BR OVC007
TEMPO 2222/2302 2SM -RA BR OVC004
FM230400 06007KT P6SM VCSH OVC007
FM231700 03008KT P6SM SHRA OVC006

Example: see airport list